Time;durP1;ratioP1;P1;durP2;ratioP2;P2;SDS_P1;SDS_P2;PMS_P1;PMS_P2;Temp;Humidity;BMP_temperature;BMP_pressure;BME280_temperature;BME280_humidity;BME280_pressure;Samples;Min_cycle;Max_cycle;Signal;HPM_P1;HPM_P2
2023/01/16 00:01:59;;;;;;;1.83;1.40;;;;;;;3.70;100.00;99514.09;5032598;28;20036;-72
2023/01/16 00:04:25;;;;;;;3.53;1.25;;;;;;;3.64;100.00;99512.66;5025760;28;20480;-72
2023/01/16 00:06:50;;;;;;;2.25;1.33;;;;;;;3.60;100.00;99507.59;5027391;28;20041;-72
2023/01/16 00:09:16;;;;;;;3.78;1.40;;;;;;;3.52;100.00;99498.19;5026087;28;20476;-72
2023/01/16 00:11:41;;;;;;;3.25;1.20;;;;;;;3.42;100.00;99498.88;5027980;28;20031;-72
2023/01/16 00:14:06;;;;;;;2.83;1.38;;;;;;;3.38;100.00;99502.72;5027732;28;20029;-72
2023/01/16 00:16:32;;;;;;;2.17;1.23;;;;;;;3.33;100.00;99498.50;5026326;28;20359;-73
2023/01/16 00:18:57;;;;;;;2.67;1.20;;;;;;;3.27;100.00;99488.16;5026388;28;20488;-73
2023/01/16 00:21:26;;;;;;;3.00;1.38;;;;;;;3.23;100.00;99489.31;5025762;28;20041;-73
2023/01/16 00:23:57;;;;;;;3.60;1.42;;;;;;;3.17;100.00;99483.47;5047126;28;20573;-72
2023/01/16 00:26:23;;;;;;;5.28;1.50;;;;;;;3.12;100.00;99478.38;5036281;28;20033;-72
2023/01/16 00:28:49;;;;;;;4.15;1.60;;;;;;;3.07;100.00;99480.50;5025852;28;20056;-73
2023/01/16 00:31:15;;;;;;;3.40;1.60;;;;;;;3.05;100.00;99475.22;5009510;28;20029;-72
2023/01/16 00:33:40;;;;;;;6.43;1.77;;;;;;;3.01;100.00;99475.53;5041422;28;20524;-72
2023/01/16 00:36:06;;;;;;;2.10;1.27;;;;;;;2.96;100.00;99474.94;5040696;28;20061;-72
2023/01/16 00:38:32;;;;;;;6.97;2.55;;;;;;;2.95;100.00;99474.09;5027350;28;20467;-72
2023/01/16 00:40:58;;;;;;;6.72;1.90;;;;;;;2.96;100.00;99467.75;5027034;28;20540;-72
2023/01/16 00:43:23;;;;;;;2.50;1.50;;;;;;;2.94;100.00;99464.31;5027262;28;20065;-72
2023/01/16 00:45:49;;;;;;;4.40;1.90;;;;;;;2.95;100.00;99471.41;5025438;28;20033;-72
2023/01/16 00:48:15;;;;;;;2.53;1.75;;;;;;;2.92;100.00;99468.03;5037697;28;20083;-72
2023/01/16 00:50:40;;;;;;;3.75;2.00;;;;;;;2.90;100.00;99459.25;5045334;28;20033;-72
2023/01/16 00:53:05;;;;;;;6.95;1.92;;;;;;;2.84;100.00;99456.91;5029381;28;20094;-72
2023/01/16 00:55:36;;;;;;;2.75;1.67;;;;;;;2.83;100.00;99450.69;5041489;28;20045;-73
2023/01/16 00:58:03;;;;;;;4.18;1.65;;;;;;;2.80;100.00;99454.44;5025979;28;20044;-72
2023/01/16 01:00:28;;;;;;;6.05;2.17;;;;;;;2.77;100.00;99443.88;5025787;28;20090;-74
2023/01/16 01:02:53;;;;;;;8.35;2.25;;;;;;;2.72;100.00;99435.25;5026746;28;20136;-72
2023/01/16 01:05:19;;;;;;;5.18;1.70;;;;;;;2.68;100.00;99431.03;5026799;28;20495;-71
2023/01/16 01:07:44;;;;;;;4.18;2.00;;;;;;;2.66;100.00;99432.06;5037545;28;20119;-73
2023/01/16 01:10:10;;;;;;;4.18;2.10;;;;;;;2.63;100.00;99432.28;5027552;28;20038;-72
2023/01/16 01:12:35;;;;;;;4.50;1.60;;;;;;;2.54;100.00;99417.63;5025305;28;20044;-73
2023/01/16 01:15:01;;;;;;;6.85;1.90;;;;;;;2.50;100.00;99422.31;5025436;28;20120;-72
2023/01/16 01:17:26;;;;;;;5.53;1.73;;;;;;;2.46;100.00;99418.09;5026781;28;20107;-74
2023/01/16 01:19:51;;;;;;;5.55;1.83;;;;;;;2.37;100.00;99407.91;5025887;28;20037;-73
2023/01/16 01:22:17;;;;;;;10.40;1.85;;;;;;;2.41;100.00;99409.47;5025050;28;20125;-73
2023/01/16 01:24:44;;;;;;;2.53;1.30;;;;;;;2.40;100.00;99412.25;5025935;28;20437;-72
2023/01/16 01:27:09;;;;;;;8.30;3.05;;;;;;;2.35;100.00;99399.13;5026310;28;20041;-72
2023/01/16 01:29:35;;;;;;;5.05;1.67;;;;;;;2.32;100.00;99401.13;5025288;28;20554;-72
2023/01/16 01:32:01;;;;;;;4.57;1.77;;;;;;;2.28;100.00;99387.03;5029084;28;20037;-72
2023/01/16 01:34:28;;;;;;;4.68;1.90;;;;;;;2.21;100.00;99373.13;5029140;28;20580;-73
2023/01/16 01:36:54;;;;;;;5.95;1.45;;;;;;;2.22;100.00;99369.50;5045519;28;20116;-72
2023/01/16 01:39:19;;;;;;;3.33;2.22;;;;;;;2.16;100.00;99359.16;5049259;28;20231;-72
2023/01/16 01:41:44;;;;;;;12.23;1.88;;;;;;;2.16;100.00;99374.38;5035376;28;20049;-72
2023/01/16 01:44:48;;;;;;;4.35;1.38;;;;;;;2.13;100.00;99367.38;5012540;28;20060;-72
2023/01/16 01:47:15;;;;;;;7.43;1.77;;;;;;;2.12;100.00;99351.38;5029039;28;20041;-74
2023/01/16 01:49:40;;;;;;;7.60;1.77;;;;;;;2.09;100.00;99338.16;5028993;28;20061;-72
2023/01/16 01:52:07;;;;;;;6.80;1.58;;;;;;;2.08;100.00;99333.75;5029820;28;20120;-72
2023/01/16 01:54:41;;;;;;;5.47;1.52;;;;;;;2.03;100.00;99329.53;5030140;28;20040;-73
2023/01/16 01:57:11;;;;;;;6.38;1.45;;;;;;;1.97;100.00;99321.00;5012584;28;20056;-72
2023/01/16 01:59:53;;;;;;;6.72;1.60;;;;;;;1.99;100.00;99319.09;5028377;28;20489;-72
2023/01/16 02:02:23;;;;;;;5.72;2.72;;;;;;;1.97;100.00;99315.66;5030264;28;20030;-72
2023/01/16 02:04:51;;;;;;;2.70;1.33;;;;;;;1.95;100.00;99307.69;5029492;28;20065;-73
2023/01/16 02:07:19;;;;;;;5.03;1.25;;;;;;;1.95;100.00;99293.41;5028968;28;20157;-72
2023/01/16 02:09:45;;;;;;;6.35;1.60;;;;;;;1.96;100.00;99297.84;5028633;28;20048;-72
2023/01/16 02:12:12;;;;;;;3.50;1.60;;;;;;;1.96;100.00;99293.34;5030171;28;20057;-72
2023/01/16 02:14:41;;;;;;;5.75;1.70;;;;;;;1.93;100.00;99285.47;5028794;28;20083;-74
2023/01/16 02:20:17;;;;;;;5.93;2.05;;;;;;;1.96;100.00;99279.94;5029207;28;20378;-72
2023/01/16 02:22:54;;;;;;;5.65;2.22;;;;;;;1.99;100.00;99268.13;5029628;28;20041;-71
2023/01/16 02:25:50;;;;;;;5.63;1.95;;;;;;;2.01;100.00;99268.91;5030467;28;20044;-72
2023/01/16 02:28:37;;;;;;;7.88;1.67;;;;;;;2.01;100.00;99260.88;5046501;28;20123;-72
2023/01/16 02:31:07;;;;;;;3.50;1.63;;;;;;;2.03;100.00;99265.16;5049166;28;20150;-72
2023/01/16 02:34:11;;;;;;;3.50;1.35;;;;;;;2.00;100.00;99251.94;5032449;28;20040;-72
2023/01/16 02:36:36;;;;;;;5.07;1.33;;;;;;;1.98;100.00;99240.44;5028492;28;20049;-72
2023/01/16 02:39:20;;;;;;;2.67;1.55;;;;;;;1.98;100.00;99229.72;5028283;28;20063;-72
2023/01/16 02:42:12;;;;;;;4.07;1.35;;;;;;;1.96;100.00;99212.88;5041300;28;20048;-72
2023/01/16 02:44:53;;;;;;;6.43;1.60;;;;;;;1.92;100.00;99206.00;5028263;28;20041;-72
2023/01/16 02:47:27;;;;;;;4.43;2.08;;;;;;;1.92;100.00;99197.09;5029243;28;20033;-72
2023/01/16 02:50:02;;;;;;;8.65;1.50;;;;;;;1.92;100.00;99197.09;5027786;28;20108;-72
2023/01/16 02:52:37;;;;;;;2.90;1.10;;;;;;;1.88;100.00;99177.66;5028663;28;20044;-72
2023/01/16 02:55:38;;;;;;;2.85;1.52;;;;;;;1.86;100.00;99173.31;5029188;28;20124;-72
2023/01/16 02:58:06;;;;;;;3.80;0.90;;;;;;;1.82;100.00;99164.63;5026400;28;20066;-72
2023/01/16 03:00:34;;;;;;;6.30;1.58;;;;;;;1.81;100.00;99154.00;5027036;28;20034;-72
2023/01/16 03:03:00;;;;;;;2.40;1.25;;;;;;;1.79;100.00;99146.91;5029278;28;20029;-72
2023/01/16 03:05:29;;;;;;;10.00;1.40;;;;;;;1.77;100.00;99137.22;5027269;28;20369;-72
2023/01/16 03:08:00;;;;;;;6.68;1.75;;;;;;;1.76;100.00;99132.84;5026931;28;20033;-72
2023/01/16 03:10:38;;;;;;;5.85;1.42;;;;;;;1.75;100.00;99129.31;5028659;28;20500;-74
2023/01/16 03:13:30;;;;;;;7.68;2.08;;;;;;;1.75;100.00;99123.94;5027322;28;20459;-72
2023/01/16 03:16:07;;;;;;;7.05;1.63;;;;;;;1.74;100.00;99118.69;5027184;28;20532;-72
2023/01/16 03:18:59;;;;;;;7.72;1.20;;;;;;;1.75;100.00;99107.00;5028582;28;20418;-72
2023/01/16 03:21:39;;;;;;;3.00;1.33;;;;;;;1.74;100.00;99094.56;5027079;28;20060;-72
2023/01/16 03:24:16;;;;;;;8.95;1.90;;;;;;;1.73;100.00;99088.34;5026842;28;20489;-72
2023/01/16 03:26:46;;;;;;;6.43;1.30;;;;;;;1.74;100.00;99084.69;5027756;28;20554;-72
2023/01/16 03:29:48;;;;;;;3.97;1.30;;;;;;;1.77;100.00;99079.16;5027015;28;20045;-72
2023/01/16 03:32:30;;;;;;;5.55;1.30;;;;;;;1.82;100.00;99072.59;5033617;28;20056;-73
2023/01/16 03:35:41;;;;;;;3.30;1.23;;;;;;;1.83;100.00;99059.13;5046557;28;20029;-73
2023/01/16 03:38:11;;;;;;;7.30;1.40;;;;;;;1.82;100.00;99052.03;5027506;28;20120;-73
2023/01/16 03:40:42;;;;;;;7.95;1.52;;;;;;;1.79;100.00;99042.38;5027866;28;20045;-72
2023/01/16 03:43:32;;;;;;;9.75;1.67;;;;;;;1.85;100.00;99042.91;5010277;28;20456;-73
2023/01/16 03:46:07;;;;;;;5.80;1.38;;;;;;;1.84;100.00;99033.16;5026582;28;20029;-72
2023/01/16 03:48:58;;;;;;;7.50;1.52;;;;;;;1.87;100.00;99022.25;5010180;28;20041;-72
2023/01/16 03:51:26;;;;;;;4.80;1.17;;;;;;;1.85;100.00;99010.75;5027424;28;20119;-73
2023/01/16 03:54:07;;;;;;;6.18;1.25;;;;;;;1.87;100.00;99003.47;5025896;28;20159;-72
2023/01/16 03:56:39;;;;;;;5.72;1.67;;;;;;;1.85;100.00;98990.16;5027889;28;20037;-72
2023/01/16 03:59:04;;;;;;;3.05;1.00;;;;;;;1.85;100.00;98986.63;5027606;28;20037;-72
2023/01/16 04:01:34;;;;;;;3.38;1.55;;;;;;;1.86;100.00;98969.56;5027685;28;20104;-73
2023/01/16 04:04:08;;;;;;;3.45;1.58;;;;;;;1.85;100.00;98971.38;5026066;28;20045;-72
2023/01/16 04:06:45;;;;;;;3.08;1.20;;;;;;;1.80;100.00;98952.06;5034345;28;20047;-72
2023/01/16 04:09:18;;;;;;;6.57;1.35;;;;;;;1.85;100.00;98941.91;5048047;28;20116;-72
2023/01/16 04:11:46;;;;;;;5.05;1.60;;;;;;;1.83;100.00;98942.97;5034341;28;20041;-73
2023/01/16 04:14:13;;;;;;;3.83;1.20;;;;;;;1.82;100.00;98941.25;5026571;28;20045;-73
2023/01/16 04:16:42;;;;;;;4.68;1.40;;;;;;;1.84;100.00;98934.81;5010425;28;20037;-72
2023/01/16 04:19:12;;;;;;;4.38;1.40;;;;;;;1.82;100.00;98923.34;5026227;28;20405;-73
2023/01/16 04:21:37;;;;;;;9.23;1.40;;;;;;;1.80;100.00;98914.53;5025645;28;20068;-73
2023/01/16 04:24:03;;;;;;;6.55;1.85;;;;;;;1.83;100.00;98914.34;5009811;28;20085;-73
2023/01/16 04:26:29;;;;;;;5.25;2.47;;;;;;;1.86;100.00;98900.72;5027369;28;20064;-73
2023/01/16 04:28:55;;;;;;;6.75;1.70;;;;;;;1.88;100.00;98887.22;5026592;28;20033;-73
2023/01/16 04:31:27;;;;;;;3.63;1.48;;;;;;;1.90;100.00;98883.47;5027721;28;20033;-72
2023/01/16 04:33:53;;;;;;;7.65;1.60;;;;;;;1.90;100.00;98863.84;5026964;28;20076;-72
2023/01/16 04:36:18;;;;;;;6.57;1.60;;;;;;;1.93;100.00;98860.94;5027148;28;20052;-73
2023/01/16 04:38:43;;;;;;;6.03;2.58;;;;;;;1.93;100.00;98844.88;5027248;28;20098;-74
2023/01/16 04:41:09;;;;;;;7.20;1.55;;;;;;;1.96;100.00;98836.63;5034518;28;20404;-72
2023/01/16 04:43:34;;;;;;;2.75;1.60;;;;;;;1.99;100.00;98831.88;5042526;28;20134;-73
2023/01/16 04:45:59;;;;;;;6.47;1.67;;;;;;;2.01;100.00;98813.88;5046928;28;20064;-72
2023/01/16 04:48:25;;;;;;;3.10;1.48;;;;;;;2.04;100.00;98808.28;5045943;28;20021;-73
2023/01/16 04:50:50;;;;;;;7.82;1.90;;;;;;;2.09;100.00;98799.06;5046050;28;20059;-72
2023/01/16 04:53:16;;;;;;;6.82;1.58;;;;;;;2.12;100.00;98788.97;5038057;28;20032;-73
2023/01/16 04:55:41;;;;;;;3.88;1.50;;;;;;;2.16;100.00;98778.88;5027617;28;20465;-72
2023/01/16 04:58:06;;;;;;;7.03;1.70;;;;;;;2.17;100.00;98772.56;5027307;28;20026;-72
2023/01/16 05:00:32;;;;;;;5.13;1.80;;;;;;;2.20;100.00;98762.47;5026776;28;20029;-73
2023/01/16 05:02:57;;;;;;;4.20;1.60;;;;;;;2.27;100.00;98752.13;5026040;28;20108;-72
2023/01/16 05:05:23;;;;;;;6.70;1.70;;;;;;;2.31;100.00;98737.53;5027363;28;20484;-72
2023/01/16 05:08:15;;;;;;;4.28;1.80;;;;;;;2.34;100.00;98741.84;5047161;28;20464;-72
2023/01/16 05:10:33;;;;;;;7.18;1.88;;;;;;;2.36;100.00;98716.59;5047453;28;20033;-72
2023/01/16 05:12:59;;;;;;;5.07;1.48;;;;;;;2.41;100.00;98709.06;5029832;28;20037;-72
2023/01/16 05:15:24;;;;;;;2.45;1.52;;;;;;;2.48;100.00;98712.16;5029526;28;20091;-73
2023/01/16 05:17:49;;;;;;;4.47;1.58;;;;;;;2.49;100.00;98698.63;5040714;28;20037;-72
2023/01/16 05:20:15;;;;;;;4.68;1.67;;;;;;;2.55;100.00;98694.63;5050319;28;20036;-72
2023/01/16 05:22:40;;;;;;;4.90;1.83;;;;;;;2.61;100.00;98696.88;5037940;28;20057;-73
2023/01/16 05:25:06;;;;;;;5.95;1.83;;;;;;;2.67;100.00;98684.81;5030782;28;20108;-72
2023/01/16 05:27:31;;;;;;;5.10;2.38;;;;;;;2.69;100.00;98672.13;5030341;28;20022;-73
2023/01/16 05:29:57;;;;;;;8.50;1.98;;;;;;;2.73;100.00;98663.72;5030434;28;20041;-73
2023/01/16 05:32:22;;;;;;;6.63;1.73;;;;;;;2.77;100.00;98654.47;5036827;28;20071;-73
2023/01/16 05:34:47;;;;;;;4.20;1.65;;;;;;;2.79;100.00;98646.28;5034459;28;20034;-72
2023/01/16 05:37:13;;;;;;;6.03;1.70;;;;;;;2.83;100.00;98637.03;5030515;28;20087;-74
2023/01/16 05:39:38;;;;;;;8.63;2.20;;;;;;;2.87;100.00;98624.25;5029459;28;20030;-73
2023/01/16 05:42:03;;;;;;;6.75;2.33;;;;;;;2.90;100.00;98608.75;5044110;28;20119;-72
2023/01/16 05:44:29;;;;;;;9.38;1.95;;;;;;;2.93;100.00;98602.28;5031439;28;20507;-74
2023/01/16 05:46:54;;;;;;;7.68;1.95;;;;;;;2.95;100.00;98587.75;5030491;28;20048;-72
2023/01/16 05:49:19;;;;;;;8.88;1.98;;;;;;;2.94;100.00;98580.69;5029753;28;20041;-73
2023/01/16 05:51:45;;;;;;;4.72;1.88;;;;;;;2.98;100.00;98571.41;5049804;28;20119;-72
2023/01/16 05:54:11;;;;;;;3.60;2.17;;;;;;;3.03;100.00;98571.91;5050564;28;20052;-72
2023/01/16 05:56:37;;;;;;;10.30;1.40;;;;;;;3.07;100.00;98567.13;5038747;28;20099;-73
2023/01/16 05:59:02;;;;;;;7.93;1.63;;;;;;;3.06;100.00;98557.38;5030017;28;20045;-72
2023/01/16 06:01:27;;;;;;;5.40;1.52;;;;;;;3.10;100.00;98563.38;5028730;28;20033;-72
2023/01/16 06:03:53;;;;;;;4.88;1.58;;;;;;;3.10;100.00;98549.94;5029641;28;20463;-74
2023/01/16 06:06:18;;;;;;;7.90;2.03;;;;;;;3.09;100.00;98541.03;5028169;28;20450;-74
2023/01/16 06:08:46;;;;;;;5.03;1.92;;;;;;;3.10;100.00;98537.38;5028405;28;20292;-74
2023/01/16 06:11:11;;;;;;;5.53;1.73;;;;;;;3.13;100.00;98545.19;5030346;28;20025;-73
2023/01/16 06:13:36;;;;;;;4.15;1.58;;;;;;;3.16;100.00;98534.19;5028475;28;20408;-72
2023/01/16 06:16:02;;;;;;;6.28;1.50;;;;;;;3.16;100.00;98536.00;5027673;28;20065;-73
2023/01/16 06:18:27;;;;;;;7.03;1.38;;;;;;;3.19;100.00;98519.66;5029887;28;20052;-73
2023/01/16 06:20:52;;;;;;;4.82;1.60;;;;;;;3.17;100.00;98514.44;5028594;28;20444;-72
2023/01/16 06:23:18;;;;;;;2.33;1.20;;;;;;;3.17;100.00;98511.75;5030296;28;20041;-74
2023/01/16 06:25:47;;;;;;;4.13;1.30;;;;;;;3.17;100.00;98502.78;5028018;28;20109;-74
2023/01/16 06:28:12;;;;;;;4.97;1.25;;;;;;;3.16;100.00;98501.94;5030237;28;20083;-73
2023/01/16 06:30:37;;;;;;;4.78;1.17;;;;;;;3.17;100.00;98490.25;5029598;28;20455;-72
2023/01/16 06:33:03;;;;;;;6.30;1.30;;;;;;;3.17;100.00;98475.94;5029138;28;20071;-75
2023/01/16 06:35:28;;;;;;;9.30;1.98;;;;;;;3.19;100.00;98488.28;5028005;28;20034;-74
2023/01/16 06:37:53;;;;;;;6.65;1.58;;;;;;;3.19;100.00;98474.00;5029275;28;20033;-73
2023/01/16 06:40:19;;;;;;;4.90;1.60;;;;;;;3.21;100.00;98478.25;5028858;28;20057;-73
2023/01/16 06:42:44;;;;;;;4.20;1.80;;;;;;;3.21;100.00;98456.75;5046058;28;20322;-73
2023/01/16 06:45:10;;;;;;;6.22;1.05;;;;;;;3.22;100.00;98453.13;5029740;28;20341;-73
2023/01/16 06:47:35;;;;;;;5.75;1.48;;;;;;;3.20;100.00;98435.41;5027988;28;20549;-73
2023/01/16 06:50:00;;;;;;;4.07;1.52;;;;;;;3.21;100.00;98424.50;5028562;28;20044;-73
2023/01/16 06:52:26;;;;;;;4.75;1.55;;;;;;;3.22;100.00;98411.97;5027272;28;20120;-73
2023/01/16 06:54:51;;;;;;;5.00;1.20;;;;;;;3.22;100.00;98398.53;5028659;28;20033;-72
2023/01/16 06:57:17;;;;;;;6.90;1.42;;;;;;;3.23;100.00;98389.50;5027550;28;20124;-72
2023/01/16 06:59:42;;;;;;;2.20;1.13;;;;;;;3.22;100.00;98363.59;5029096;28;20029;-73
2023/01/16 07:02:08;;;;;;;6.65;1.40;;;;;;;3.26;100.00;98370.41;5028999;28;20137;-72
2023/01/16 07:04:34;;;;;;;6.78;1.10;;;;;;;3.27;100.00;98364.09;5027260;28;20404;-72
2023/01/16 07:06:59;;;;;;;2.28;0.95;;;;;;;3.28;100.00;98355.03;5027167;28;20059;-74
2023/01/16 07:09:33;;;;;;;6.07;1.50;;;;;;;3.26;100.00;98336.38;5010867;28;20538;-73
2023/01/16 07:11:59;;;;;;;4.32;1.20;;;;;;;3.27;100.00;98323.78;5028813;28;20489;-72
2023/01/16 07:22:38;;;;;;;1.55;1.00;;;;;;;3.28;100.00;98286.03;5035854;28;20045;-72
2023/01/16 07:25:21;;;;;;;4.38;1.30;;;;;;;3.28;100.00;98269.06;5028810;28;20431;-73
2023/01/16 07:27:49;;;;;;;1.45;0.95;;;;;;;3.28;100.00;98269.91;5044293;28;20040;-73
2023/01/16 07:30:17;;;;;;;3.50;1.42;;;;;;;3.29;100.00;98268.06;5010305;28;20473;-72
2023/01/16 07:32:43;;;;;;;3.63;1.20;;;;;;;3.27;100.00;98256.59;5038819;28;20073;-73
2023/01/16 07:35:09;;;;;;;5.10;1.35;;;;;;;3.28;100.00;98258.31;5045646;28;20133;-74
2023/01/16 07:37:34;;;;;;;4.32;1.10;;;;;;;3.27;100.00;98249.41;5027510;28;20528;-73
2023/01/16 07:40:00;;;;;;;5.68;1.30;;;;;;;3.29;100.00;98247.41;5026733;28;20036;-74
2023/01/16 07:42:25;;;;;;;3.35;1.10;;;;;;;3.29;100.00;98236.69;5026840;28;20040;-73
2023/01/16 07:44:50;;;;;;;5.57;1.40;;;;;;;3.29;100.00;98223.25;5027725;28;20036;-73
2023/01/16 07:47:16;;;;;;;4.75;1.42;;;;;;;3.28;100.00;98226.91;5028239;28;20041;-73
2023/01/16 07:49:41;;;;;;;5.30;1.63;;;;;;;3.28;100.00;98223.38;5010480;28;20461;-73
2023/01/16 07:52:06;;;;;;;2.30;1.48;;;;;;;3.27;100.00;98214.47;5027357;28;20116;-73
2023/01/16 07:54:35;;;;;;;3.58;1.23;;;;;;;3.30;100.00;98213.34;5027698;28;20053;-73
2023/01/16 07:57:01;;;;;;;4.25;1.13;;;;;;;3.30;100.00;98207.97;5027810;28;20033;-73
2023/01/16 07:59:26;;;;;;;4.32;1.35;;;;;;;3.30;100.00;98199.91;5025995;28;20404;-73
2023/01/16 08:01:51;;;;;;;2.47;1.10;;;;;;;3.30;100.00;98190.00;5027928;28;20477;-73
2023/01/16 08:04:17;;;;;;;2.28;1.15;;;;;;;3.31;100.00;98182.78;5025954;28;20445;-73
2023/01/16 08:06:44;;;;;;;4.53;1.30;;;;;;;3.31;100.00;98178.31;5026486;28;20385;-72
2023/01/16 08:09:10;;;;;;;10.77;1.42;;;;;;;3.30;100.00;98163.13;5027915;28;20029;-72
2023/01/16 08:11:36;;;;;;;4.80;1.45;;;;;;;3.30;100.00;98157.78;5026255;28;20396;-72
2023/01/16 08:14:02;;;;;;;6.63;1.65;;;;;;;3.32;100.00;98147.75;5027389;28;20116;-73
2023/01/16 08:16:28;;;;;;;6.78;1.35;;;;;;;3.32;100.00;98141.53;5027644;28;20392;-74
2023/01/16 08:18:53;;;;;;;3.72;1.17;;;;;;;3.32;100.00;98144.22;5026776;28;20033;-73
2023/01/16 08:21:19;;;;;;;4.32;1.23;;;;;;;3.35;100.00;98143.09;5025568;28;20025;-74
2023/01/16 08:23:44;;;;;;;1.35;1.25;;;;;;;3.34;100.00;98126.13;5027529;28;20500;-74
2023/01/16 08:26:13;;;;;;;4.47;1.33;;;;;;;3.37;100.00;98127.69;5033585;28;20083;-73
2023/01/16 08:28:39;;;;;;;1.63;1.17;;;;;;;3.36;100.00;98113.41;5036407;28;20025;-72
2023/01/16 08:31:08;;;;;;;1.55;1.30;;;;;;;3.36;100.00;98108.03;5025730;28;20353;-73
2023/01/16 08:33:35;;;;;;;4.70;1.20;;;;;;;3.37;100.00;98087.41;5043157;28;20028;-73
2023/01/16 08:36:02;;;;;;;2.28;1.50;;;;;;;3.36;100.00;98102.66;5029079;28;20037;-72
2023/01/16 08:38:28;;;;;;;3.22;1.50;;;;;;;3.38;100.00;98091.78;5027141;28;20037;-73
2023/01/16 08:40:53;;;;;;;3.30;1.38;;;;;;;3.40;100.00;98081.72;5025398;28;20544;-74
2023/01/16 08:51:44;;;;;;;2.15;0.90;;;;;;;3.45;100.00;98075.00;5026674;28;20041;-73
2023/01/16 08:54:10;;;;;;;3.08;1.40;;;;;;;3.48;100.00;98065.78;5027694;28;20037;-73
2023/01/16 08:56:40;;;;;;;4.63;1.42;;;;;;;3.51;100.00;98065.53;5025672;28;20044;-73
2023/01/16 08:59:05;;;;;;;4.38;1.60;;;;;;;3.51;100.00;98063.69;5027005;28;20071;-73
2023/01/16 09:01:31;;;;;;;6.43;1.45;;;;;;;3.54;100.00;98054.50;5025525;28;20029;-73
2023/01/16 09:03:57;;;;;;;4.93;1.30;;;;;;;3.57;100.00;98064.97;5025445;28;20041;-73
2023/01/16 09:06:22;;;;;;;2.03;1.25;;;;;;;3.57;100.00;98064.97;5025375;28;20562;-73
2023/01/16 09:08:47;;;;;;;4.28;1.60;;;;;;;3.59;100.00;98063.03;5045202;28;20025;-73
2023/01/16 09:14:00;;;;;;;1.90;1.17;;;;;;;3.61;100.00;98065.56;5026819;28;20033;-73
2023/01/16 09:16:25;;;;;;;1.10;1.00;;;;;;;3.62;100.00;98054.66;5025771;28;20519;-73
2023/01/16 09:18:51;;;;;;;4.45;1.20;;;;;;;3.62;100.00;98048.44;5033693;28;20121;-73
2023/01/16 09:21:19;;;;;;;1.90;1.10;;;;;;;3.60;100.00;98056.66;5046231;28;20033;-73
2023/01/16 09:23:46;;;;;;;2.03;1.10;;;;;;;3.61;100.00;98039.53;5046851;28;20036;-74
2023/01/16 09:26:11;;;;;;;2.25;0.90;;;;;;;3.60;100.00;98045.91;5038393;28;20068;-73
2023/01/16 09:28:37;;;;;;;1.45;1.15;;;;;;;3.61;100.00;98047.59;5026903;28;20465;-73
2023/01/16 09:31:02;;;;;;;1.42;0.85;;;;;;;3.60;100.00;98040.53;5025042;28;20794;-72
2023/01/16 09:33:28;;;;;;;2.58;1.00;;;;;;;3.62;100.00;98035.00;5041722;28;20032;-73
2023/01/16 09:35:53;;;;;;;1.08;0.90;;;;;;;3.62;100.00;98026.94;5041811;28;20041;-73
2023/01/16 09:38:18;;;;;;;0.80;0.75;;;;;;;3.62;100.00;98030.47;5027024;28;20504;-73
2023/01/16 09:40:51;;;;;;;1.30;0.82;;;;;;;3.64;100.00;98031.22;5028038;28;20060;-74
2023/01/16 09:43:35;;;;;;;1.77;1.00;;;;;;;3.66;100.00;98023.00;5039172;28;20029;-73
2023/01/16 09:46:25;;;;;;;1.73;0.80;;;;;;;3.66;100.00;98021.16;5026393;28;20488;-73
2023/01/16 09:48:56;;;;;;;0.88;0.88;;;;;;;3.69;100.00;98022.75;5026528;28;20587;-73
2023/01/16 09:51:28;;;;;;;0.75;0.60;;;;;;;3.71;100.00;98012.69;5027918;28;20091;-72
2023/01/16 09:59:31;;;;;;;2.10;0.90;;;;;;;3.78;100.00;98012.00;5029589;28;20041;-74
2023/01/16 10:02:04;;;;;;;1.75;0.75;;;;;;;3.81;100.00;98008.16;5030136;28;20072;-73
2023/01/16 10:04:30;;;;;;;1.77;0.60;;;;;;;3.83;100.00;98007.06;5029547;28;20053;-73
2023/01/16 10:07:15;;;;;;;0.75;0.68;;;;;;;3.87;100.00;98001.38;5028251;28;20057;-73
2023/01/16 10:10:02;;;;;;;1.20;0.93;;;;;;;3.90;100.00;98001.97;5033464;28;20025;-72
2023/01/16 10:12:33;;;;;;;1.13;0.85;;;;;;;3.92;100.00;97991.09;5031642;28;20052;-73
2023/01/16 10:15:08;;;;;;;1.05;0.85;;;;;;;3.96;100.00;97979.03;5029703;28;20044;-73
2023/01/16 10:17:57;;;;;;;4.80;0.88;;;;;;;4.02;100.00;97979.34;5028302;28;20500;-72
2023/01/16 10:20:41;;;;;;;1.10;0.85;;;;;;;4.14;100.00;97963.88;5027946;28;20056;-73
2023/01/16 10:23:30;;;;;;;1.67;0.88;;;;;;;4.26;100.00;97965.44;5029886;28;20492;-74
2023/01/16 10:26:01;;;;;;;4.25;0.77;;;;;;;4.43;100.00;97961.19;5040145;28;20029;-72
2023/01/16 10:28:55;;;;;;;0.80;0.80;;;;;;;4.58;100.00;97959.75;5028379;28;20076;-73
2023/01/16 10:31:26;;;;;;;0.98;0.70;;;;;;;4.70;100.00;97957.72;5029434;28;20037;-73
2023/01/16 10:34:15;;;;;;;2.42;1.02;;;;;;;4.80;100.00;97942.41;5043150;28;20465;-73
2023/01/16 10:36:46;;;;;;;0.82;0.80;;;;;;;4.86;100.00;97938.28;5028353;28;20041;-73
2023/01/16 10:39:15;;;;;;;1.88;0.90;;;;;;;4.91;100.00;97930.59;5011845;28;20095;-73
2023/01/16 10:50:16;;;;;;;1.05;0.90;;;;;;;4.99;100.00;97911.88;5029292;28;20041;-74
2023/01/16 10:52:41;;;;;;;1.30;0.80;;;;;;;5.02;100.00;97914.25;5029183;28;20036;-73
2023/01/16 10:55:09;;;;;;;1.15;0.75;;;;;;;5.01;100.00;97914.41;5029234;28;20037;-72
2023/01/16 10:57:37;;;;;;;1.63;1.17;;;;;;;5.03;100.00;97905.16;5028493;28;20037;-73
2023/01/16 11:00:16;;;;;;;2.88;1.30;;;;;;;4.99;100.00;97894.81;5029061;28;20163;-73
2023/01/16 11:02:45;;;;;;;1.67;0.90;;;;;;;4.99;100.00;97887.63;5028000;28;20508;-73
2023/01/16 11:05:28;;;;;;;2.00;1.38;;;;;;;4.97;99.39;97886.06;5027938;28;20098;-72
2023/01/16 11:07:55;;;;;;;1.58;1.15;;;;;;;4.97;99.12;97878.81;5027192;28;20111;-73
2023/01/16 11:10:21;;;;;;;1.83;1.00;;;;;;;4.96;99.66;97869.03;5027572;28;20476;-73
2023/01/16 11:18:33;;;;;;;2.10;1.10;;;;;;;4.99;98.77;97857.09;5028260;28;20041;-72
2023/01/16 11:21:02;;;;;;;1.65;0.93;;;;;;;5.00;97.85;97843.50;5026445;28;20095;-73
2023/01/16 11:23:37;;;;;;;2.45;0.98;;;;;;;5.04;99.34;97834.13;5028613;28;20127;-72
2023/01/16 11:26:05;;;;;;;0.80;0.80;;;;;;;5.10;97.81;97832.69;5026954;28;20044;-72
2023/01/16 11:28:31;;;;;;;1.95;0.90;;;;;;;5.11;97.73;97831.66;5028455;28;20120;-72
2023/01/16 11:31:01;;;;;;;1.67;0.88;;;;;;;5.15;97.51;97822.28;5026957;28;20053;-73
2023/01/16 11:33:34;;;;;;;0.98;0.88;;;;;;;5.21;97.83;97818.13;5043397;28;20048;-74
2023/01/16 11:36:01;;;;;;;0.73;0.73;;;;;;;5.25;97.39;97814.97;5035434;28;20523;-73
2023/01/16 11:38:32;;;;;;;2.72;1.23;;;;;;;5.27;96.61;97804.91;5028180;28;20047;-73
2023/01/16 11:41:03;;;;;;;2.03;1.15;;;;;;;5.31;97.24;97800.88;5027689;28;20128;-73
2023/01/16 11:46:30;;;;;;;2.05;0.80;;;;;;;5.34;96.06;97786.25;5047916;28;20060;-73
2023/01/16 11:48:59;;;;;;;3.30;0.90;;;;;;;5.32;96.55;97783.75;5040284;28;20034;-73
2023/01/16 11:51:29;;;;;;;1.13;0.88;;;;;;;5.32;96.13;97785.59;5026326;28;20021;-73
2023/01/16 11:53:56;;;;;;;0.90;0.85;;;;;;;5.32;96.83;97777.50;5026485;28;20042;-73
2023/01/16 11:56:39;;;;;;;2.08;0.95;;;;;;;5.27;96.60;97767.19;5026703;28;20546;-73
2023/01/16 11:59:27;;;;;;;3.00;1.13;;;;;;;5.25;96.54;97762.94;5037071;28;20537;-73
2023/01/16 12:02:18;;;;;;;2.08;0.70;;;;;;;5.24;97.19;97758.56;5047945;28;20041;-73
2023/01/16 12:08:20;;;;;;;1.75;0.98;;;;;;;5.21;97.31;97750.75;5025227;28;20140;-73
2023/01/16 12:11:06;;;;;;;1.98;0.80;;;;;;;5.25;97.78;97741.38;5009421;28;20092;-73
2023/01/16 12:14:20;;;;;;;1.60;1.00;;;;;;;5.26;98.95;97743.91;5027252;28;20431;-73
2023/01/16 12:17:20;;;;;;;0.70;0.70;;;;;;;5.27;99.16;97734.84;5027887;28;20045;-73
2023/01/16 12:20:11;;;;;;;1.77;0.85;;;;;;;5.33;99.51;97726.13;5026697;28;20038;-73
2023/01/16 12:23:00;;;;;;;1.23;0.73;;;;;;;5.38;99.69;97722.97;5032141;28;20040;-73
2023/01/16 12:26:03;;;;;;;0.80;0.70;;;;;;;5.43;100.00;97722.50;5047499;28;20044;-73
2023/01/16 12:28:40;;;;;;;4.15;1.33;;;;;;;5.45;100.00;97717.78;5040302;28;20026;-73
2023/01/16 12:31:26;;;;;;;1.00;0.90;;;;;;;5.44;99.46;97708.00;5025853;28;20412;-73
2023/01/16 12:34:18;;;;;;;1.40;0.93;;;;;;;5.47;99.90;97703.16;5008939;28;20060;-74
2023/01/16 12:36:59;;;;;;;1.45;1.05;;;;;;;5.53;99.34;97696.28;5022074;28;20052;-74
2023/01/16 12:39:40;;;;;;;0.90;0.90;;;;;;;5.59;99.08;97698.34;5027262;28;20073;-73